aviador You're here:

KJNX Decoded Metar

SMITHFIELD JOHNS in NC, USA
Report Time2017-08-22 08:45:00
UTC Time2017-08-22 09:12:31
Flight Rules vfr VFR
WindCalm
Visibility9999 m
Phenomena:N/A
Clouds:Scattered 002 Hf
CeilingNone
Temp22°C (ISA +7)
Dew Point22°C (100% RH)
QNH1020 hPa
Density Alt1,129 ft
Elevation164 ft
Report Wrong Elevation
Raw Report
METAR KJNX 220845Z AUTO 00000KT 10SM SCT002 22/22 A3011 RMK AO2=

Extra information for KJNX:More info

Metar Taf Metar & Taf Last 4 Metars F.Rules Stats Wind Profile Meteogram Temp Stats Airport Information Weather charts Add Link Nearby VenuesMetar ALERT Operation Metar Decoded Social comments

AIRNAV info for KJNX